Bent, New Mexico
Current Conditions -  °F | °C
As of 8:58 AM on Thursday 23 Oct 2014 (Local Time) from KHMN Reporting Station
Clear Clear  
Wind Chill: 59°   Ceiling: Unl
Heat Index: 59°   Visibility: 10mi
Dew Point: 52°   Wind: 0mph
Humidity: 79%   Direction: NA
Pressure: 30.21"   Gusts: NA
Location:  33.16°N, 105.86°W
Report Text: KHMN 231458Z AUTO 00000KT 10SM CLR 15/11 A3021 RMK AO2 SLP184 T01500113 52016 $
Loading
Personal Weather Stations






























Interactive Weather Map New forecast layout! Learn more

10-Day Weather Forecast

Advertisements
Track Severe Weather on mobile